createdAt,value
2022-12-08T00:02:08.328Z,10.23
2022-12-08T00:05:17.607Z,10.18
2022-12-08T00:08:27.674Z,9.65
2022-12-08T00:11:20.129Z,11.22
2022-12-08T00:14:11.581Z,9.13
2022-12-08T00:17:04.409Z,9.70
2022-12-08T00:19:55.939Z,9.88
2022-12-08T00:22:47.538Z,9.10
2022-12-08T00:25:41.354Z,9.88
2022-12-08T00:28:33.550Z,10.48
2022-12-08T00:31:24.929Z,9.85
2022-12-08T00:36:56.447Z,9.25
2022-12-08T00:39:49.107Z,9.90
2022-12-08T00:42:41.052Z,9.45
2022-12-08T00:45:32.711Z,9.20
2022-12-08T00:48:24.607Z,8.48
2022-12-08T00:51:16.204Z,9.43
2022-12-08T00:54:09.864Z,8.65
2022-12-08T00:59:42.758Z,8.45
2022-12-08T01:02:35.435Z,8.68
2022-12-08T01:05:26.850Z,9.03
2022-12-08T01:08:18.676Z,8.85
2022-12-08T01:11:12.325Z,9.53
2022-12-08T01:14:14.786Z,8.80
2022-12-08T01:17:06.125Z,9.83
2022-12-08T01:22:38.038Z,9.70
2022-12-08T01:25:29.369Z,7.75
2022-12-08T01:28:21.064Z,8.55
2022-12-08T01:31:15.813Z,9.20
2022-12-08T01:34:08.646Z,9.90
2022-12-08T01:37:00.442Z,8.48
2022-12-08T01:39:51.553Z,9.53
2022-12-08T01:42:43.364Z,9.53
2022-12-08T01:45:35.548Z,8.45
2022-12-08T01:48:29.113Z,8.28
2022-12-08T01:54:02.129Z,9.93
2022-12-08T01:56:57.159Z,9.20
2022-12-08T01:59:52.353Z,8.75
2022-12-08T02:02:50.384Z,8.33
2022-12-08T02:05:42.742Z,9.85
2022-12-08T02:08:36.330Z,9.33
2022-12-08T02:11:28.626Z,9.00
2022-12-08T02:14:20.282Z,7.15
2022-12-08T02:17:18.727Z,8.03
2022-12-08T02:20:41.889Z,9.75
2022-12-08T02:26:55.179Z,8.15
2022-12-08T02:30:11.251Z,8.35
2022-12-08T02:33:30.651Z,10.98
2022-12-08T02:36:25.484Z,7.50
2022-12-08T02:39:25.367Z,7.53
2022-12-08T02:45:03.022Z,8.05
2022-12-08T02:47:55.100Z,8.20
2022-12-08T02:53:39.040Z,8.95
2022-12-08T02:56:53.515Z,8.00
2022-12-08T02:59:55.102Z,8.80
2022-12-08T03:02:52.618Z,9.65
2022-12-08T03:05:56.998Z,8.70
2022-12-08T03:11:35.659Z,7.58
2022-12-08T03:14:27.702Z,7.45
2022-12-08T03:17:22.255Z,8.68
2022-12-08T03:20:17.173Z,7.60
2022-12-08T03:23:12.298Z,8.08
2022-12-08T03:28:47.731Z,7.20
2022-12-08T03:31:41.765Z,8.13
2022-12-08T03:37:14.914Z,8.00
2022-12-08T03:42:45.291Z,7.70
2022-12-08T03:48:17.282Z,7.62
2022-12-08T03:51:09.407Z,7.80
2022-12-08T03:56:40.285Z,7.08
2022-12-08T03:59:31.708Z,6.75
2022-12-08T04:02:23.525Z,6.95
2022-12-08T04:05:15.472Z,6.83
2022-12-08T04:08:07.460Z,6.72
2022-12-08T04:10:59.061Z,7.53
2022-12-08T04:16:28.940Z,7.45
2022-12-08T04:19:20.524Z,8.25
2022-12-08T04:22:11.943Z,6.30
2022-12-08T04:25:11.367Z,7.33
2022-12-08T04:30:43.884Z,8.45
2022-12-08T04:33:36.272Z,6.00
2022-12-08T04:36:28.034Z,7.10
2022-12-08T04:41:57.897Z,8.58
2022-12-08T04:44:49.312Z,6.65
2022-12-08T04:47:41.174Z,9.23
2022-12-08T04:50:32.476Z,6.28
2022-12-08T04:53:24.106Z,7.70
2022-12-08T04:56:16.922Z,6.85
2022-12-08T04:59:08.495Z,5.55
2022-12-08T05:04:42.527Z,6.47
2022-12-08T05:07:34.524Z,6.08
2022-12-08T05:10:26.674Z,6.78
2022-12-08T05:16:10.950Z,5.70
2022-12-08T05:21:48.148Z,7.67
2022-12-08T05:24:44.016Z,7.55
2022-12-08T05:27:32.218Z,6.80
2022-12-08T05:30:23.817Z,6.22
2022-12-08T05:33:15.625Z,6.67
2022-12-08T05:38:46.477Z,7.10
2022-12-08T05:41:38.323Z,5.40
2022-12-08T05:44:30.263Z,6.75
2022-12-08T05:47:21.623Z,6.62
2022-12-08T05:50:14.087Z,6.15
2022-12-08T05:53:05.747Z,6.72
2022-12-08T05:55:57.545Z,6.25
2022-12-08T06:01:29.834Z,8.18
2022-12-08T06:07:01.204Z,7.55
2022-12-08T06:09:52.589Z,7.28
2022-12-08T06:12:44.313Z,7.12
2022-12-08T06:15:38.719Z,6.55
2022-12-08T06:18:32.825Z,6.72
2022-12-08T06:24:05.281Z,6.45
2022-12-08T06:26:56.636Z,7.00
2022-12-08T06:29:48.252Z,6.67
2022-12-08T06:32:39.861Z,8.55
2022-12-08T06:35:31.469Z,8.45
2022-12-08T06:38:23.320Z,7.97
2022-12-08T06:41:15.529Z,6.83
2022-12-08T06:44:07.432Z,9.45
2022-12-08T06:46:58.850Z,8.63
2022-12-08T06:49:50.786Z,6.70
2022-12-08T06:52:56.874Z,7.50
2022-12-08T06:58:32.654Z,7.55
2022-12-08T07:01:26.972Z,9.20
2022-12-08T07:04:18.327Z,7.92
2022-12-08T07:07:09.716Z,8.30
2022-12-08T07:12:41.282Z,6.78
2022-12-08T07:15:34.095Z,6.58
2022-12-08T07:18:26.023Z,8.28
2022-12-08T07:21:18.335Z,8.65
2022-12-08T07:26:55.304Z,8.85
2022-12-08T07:32:25.193Z,9.58
2022-12-08T07:35:18.072Z,8.20
2022-12-08T07:38:12.978Z,8.10
2022-12-08T07:43:43.356Z,7.95
2022-12-08T07:49:19.768Z,11.28
2022-12-08T07:52:12.778Z,10.87
2022-12-08T07:55:04.236Z,7.40
2022-12-08T07:57:55.944Z,9.53
2022-12-08T08:00:47.583Z,8.23
2022-12-08T08:03:39.851Z,10.28
2022-12-08T08:06:31.927Z,8.15
2022-12-08T08:09:25.267Z,7.28
2022-12-08T08:12:32.909Z,8.63
2022-12-08T08:17:52.496Z,6.97
2022-12-08T08:20:46.563Z,8.75
2022-12-08T08:23:38.525Z,7.85
2022-12-08T08:26:31.245Z,10.30
2022-12-08T08:32:02.263Z,7.70
2022-12-08T08:34:54.702Z,8.10
2022-12-08T08:37:49.049Z,7.85
2022-12-08T08:40:39.681Z,7.58
2022-12-08T08:43:37.893Z,10.20
2022-12-08T08:46:25.132Z,7.58
2022-12-08T08:52:00.606Z,8.08
2022-12-08T08:54:52.145Z,8.90
2022-12-08T08:57:43.840Z,9.58
2022-12-08T09:00:35.336Z,9.43
2022-12-08T09:03:26.975Z,9.38
2022-12-08T09:06:19.580Z,8.85
2022-12-08T09:09:11.259Z,8.98
2022-12-08T09:12:03.495Z,8.05
2022-12-08T09:17:33.325Z,8.70
2022-12-08T09:20:25.012Z,10.63
2022-12-08T09:23:17.444Z,9.88
2022-12-08T09:26:11.049Z,9.38
2022-12-08T09:31:42.547Z,10.00
2022-12-08T09:34:35.063Z,10.45
2022-12-08T09:37:30.595Z,10.72
2022-12-08T09:43:05.250Z,11.93
2022-12-08T09:45:58.483Z,10.98
2022-12-08T09:51:34.778Z,12.93
2022-12-08T09:54:29.693Z,14.33
2022-12-08T09:57:24.239Z,11.43
2022-12-08T10:03:01.982Z,15.55
2022-12-08T10:05:56.923Z,12.43
2022-12-08T10:17:03.076Z,13.68
2022-12-08T10:22:41.313Z,12.18
2022-12-08T10:25:53.690Z,13.25
2022-12-08T10:31:44.761Z,13.03
2022-12-08T10:34:39.275Z,16.73
2022-12-08T10:37:31.043Z,12.80
2022-12-08T10:40:24.066Z,15.98
2022-12-08T10:43:20.081Z,12.68
2022-12-08T10:48:56.905Z,12.23
2022-12-08T10:51:48.376Z,14.70
2022-12-08T10:57:34.570Z,13.65
2022-12-08T11:00:29.595Z,14.63
2022-12-08T11:03:27.430Z,13.58
2022-12-08T11:09:08.850Z,13.62
2022-12-08T11:12:04.081Z,18.77
2022-12-08T11:17:44.230Z,15.30
2022-12-08T11:20:42.631Z,16.10
2022-12-08T11:23:35.271Z,14.98
2022-12-08T11:31:54.582Z,17.15
2022-12-08T11:34:49.683Z,14.53
2022-12-08T11:37:43.838Z,15.90
2022-12-08T11:43:19.550Z,16.75
2022-12-08T11:46:16.750Z,15.98
2022-12-08T11:49:12.106Z,16.20
2022-12-08T11:52:06.788Z,16.15
2022-12-08T11:57:40.158Z,14.75
2022-12-08T12:00:32.502Z,17.15
2022-12-08T12:03:32.704Z,15.95
2022-12-08T12:06:54.323Z,16.50
2022-12-08T12:12:17.113Z,14.47
2022-12-08T12:15:22.287Z,16.37
2022-12-08T12:18:17.608Z,16.10
2022-12-08T12:21:20.462Z,13.95
2022-12-08T12:24:23.808Z,15.32
2022-12-08T12:27:19.459Z,16.85
2022-12-08T12:30:18.109Z,15.88
2022-12-08T12:33:11.281Z,16.85
2022-12-08T12:36:06.372Z,17.37
2022-12-08T12:39:06.564Z,16.87
2022-12-08T12:42:00.883Z,17.65
2022-12-08T12:44:58.963Z,15.75
2022-12-08T12:47:56.669Z,22.73
2022-12-08T12:50:47.954Z,14.73
2022-12-08T12:56:54.368Z,16.35
2022-12-08T13:02:32.916Z,14.73
2022-12-08T13:05:27.162Z,13.68
2022-12-08T13:11:07.020Z,13.13
2022-12-08T13:14:04.292Z,15.58
2022-12-08T13:17:01.805Z,14.07
2022-12-08T13:19:56.692Z,13.70
2022-12-08T13:26:20.694Z,13.55
2022-12-08T13:29:38.247Z,15.10
2022-12-08T13:35:47.068Z,15.13
2022-12-08T13:38:43.667Z,12.33
2022-12-08T13:41:45.073Z,16.20
2022-12-08T13:47:41.494Z,8.63
2022-12-08T13:54:35.448Z,14.03
2022-12-08T13:57:04.036Z,12.73
2022-12-08T13:59:30.984Z,13.20
2022-12-08T14:02:26.644Z,14.40
2022-12-08T14:05:29.731Z,12.60
2022-12-08T14:08:57.129Z,12.37
2022-12-08T14:11:19.862Z,10.68
2022-12-08T14:14:27.231Z,11.38
2022-12-08T14:17:14.663Z,8.08
2022-12-08T14:20:13.465Z,11.00
2022-12-08T14:23:09.361Z,10.53
2022-12-08T14:26:01.207Z,10.55
2022-12-08T14:28:53.180Z,11.73
2022-12-08T14:31:45.613Z,10.65
2022-12-08T14:35:53.540Z,11.03
2022-12-08T14:41:28.285Z,11.83
2022-12-08T14:47:33.576Z,13.78
2022-12-08T14:50:42.687Z,15.15
2022-12-08T14:53:40.610Z,13.75
2022-12-08T14:56:46.923Z,12.15
2022-12-08T14:59:40.219Z,13.53
2022-12-08T15:02:33.476Z,18.35
2022-12-08T15:05:27.200Z,15.75
2022-12-08T15:11:31.676Z,13.38
2022-12-08T15:14:34.562Z,14.70
2022-12-08T15:17:33.943Z,14.03
2022-12-08T15:20:42.951Z,15.50
2022-12-08T15:23:45.866Z,13.58
2022-12-08T15:26:42.675Z,13.53
2022-12-08T15:29:34.482Z,13.48
2022-12-08T15:32:26.998Z,14.83
2022-12-08T15:35:59.584Z,14.55
2022-12-08T15:38:51.070Z,16.52
2022-12-08T15:41:42.719Z,14.73
2022-12-08T15:44:34.623Z,16.05
2022-12-08T15:47:29.367Z,14.53
2022-12-08T15:50:24.952Z,16.30
2022-12-08T15:53:17.480Z,18.00
2022-12-08T15:56:28.043Z,14.45
2022-12-08T15:59:04.063Z,13.45
2022-12-08T16:01:56.150Z,20.12
2022-12-08T16:05:25.613Z,15.88
2022-12-08T16:07:43.324Z,17.10
2022-12-08T16:11:08.445Z,18.25
2022-12-08T16:13:57.509Z,22.13
2022-12-08T16:16:40.378Z,20.50
2022-12-08T16:19:32.626Z,21.95
2022-12-08T16:25:20.899Z,16.50
2022-12-08T16:30:53.158Z,17.25
2022-12-08T16:33:44.988Z,25.85
2022-12-08T16:36:39.857Z,19.85
2022-12-08T16:39:32.108Z,17.37
2022-12-08T16:42:43.441Z,21.17
2022-12-08T16:45:43.095Z,18.48
2022-12-08T16:48:30.920Z,15.40
2022-12-08T16:51:26.810Z,17.15
2022-12-08T16:54:16.125Z,18.05
2022-12-08T16:57:08.502Z,18.75
2022-12-08T17:00:00.773Z,17.30
2022-12-08T17:02:54.329Z,17.57
2022-12-08T17:05:46.435Z,18.70
2022-12-08T17:08:38.286Z,16.97
2022-12-08T17:11:31.290Z,17.52
2022-12-08T17:14:23.188Z,20.23
2022-12-08T17:17:14.904Z,20.77
2022-12-08T17:20:09.386Z,21.40
2022-12-08T17:23:01.285Z,20.65
2022-12-08T17:26:01.802Z,17.85
2022-12-08T17:29:01.586Z,17.98
2022-12-08T17:31:46.546Z,19.30
2022-12-08T17:34:37.853Z,24.37
2022-12-08T17:37:31.264Z,20.43
2022-12-08T17:43:03.459Z,21.12
2022-12-08T17:45:56.491Z,20.92
2022-12-08T17:48:48.645Z,19.20
2022-12-08T17:51:51.676Z,19.75
2022-12-08T17:54:46.523Z,23.77
2022-12-08T17:57:38.152Z,19.17
2022-12-08T18:00:49.718Z,20.90
2022-12-08T18:03:44.446Z,21.20
2022-12-08T18:06:37.313Z,18.73
2022-12-08T18:09:30.469Z,18.15
2022-12-08T18:12:24.004Z,19.65
2022-12-08T18:18:06.092Z,17.90
2022-12-08T18:20:57.675Z,17.12
2022-12-08T18:23:49.546Z,18.82
2022-12-08T18:26:42.585Z,17.67
2022-12-08T18:29:34.002Z,17.17
2022-12-08T18:32:26.536Z,19.25
2022-12-08T18:35:18.447Z,20.12
2022-12-08T18:38:09.966Z,17.73
2022-12-08T18:41:08.274Z,19.35
2022-12-08T18:43:59.991Z,21.00
2022-12-08T18:46:53.040Z,21.42
2022-12-08T18:49:45.197Z,21.48
2022-12-08T18:52:37.321Z,19.25
2022-12-08T18:55:29.247Z,20.43
2022-12-08T18:58:22.526Z,22.40
2022-12-08T19:01:17.228Z,19.00
2022-12-08T19:07:04.082Z,17.98
2022-12-08T19:09:57.442Z,21.37
2022-12-08T19:12:52.359Z,19.65
2022-12-08T19:15:44.002Z,19.62
2022-12-08T19:18:35.872Z,17.98
2022-12-08T19:21:27.533Z,22.27
2022-12-08T19:24:19.090Z,20.95
2022-12-08T19:27:10.764Z,19.95
2022-12-08T19:30:02.694Z,20.65
2022-12-08T19:32:54.119Z,19.50
2022-12-08T19:35:52.225Z,20.88
2022-12-08T19:38:58.509Z,22.00
2022-12-08T19:42:08.933Z,21.97
2022-12-08T19:45:04.924Z,23.10
2022-12-08T19:47:56.626Z,19.87
2022-12-08T19:50:48.433Z,20.10
2022-12-08T19:53:44.343Z,21.25
2022-12-08T19:56:32.957Z,19.82
2022-12-08T19:59:26.044Z,22.00
2022-12-08T20:02:19.477Z,19.42
2022-12-08T20:05:13.681Z,15.90
2022-12-08T20:08:08.282Z,18.32
2022-12-08T20:11:00.416Z,18.50
2022-12-08T20:13:53.808Z,22.58
2022-12-08T20:16:45.406Z,18.52
2022-12-08T20:19:36.939Z,20.88
2022-12-08T20:22:28.756Z,19.95
2022-12-08T20:25:20.489Z,21.20
2022-12-08T20:28:12.504Z,18.98
2022-12-08T20:36:11.463Z,20.72
2022-12-08T20:41:57.586Z,19.23
2022-12-08T20:45:06.422Z,22.62
2022-12-08T20:48:45.282Z,20.20
2022-12-08T20:52:17.429Z,22.05
2022-12-08T20:55:16.369Z,18.17
2022-12-08T20:59:00.415Z,18.62
2022-12-08T21:01:50.097Z,20.45
2022-12-08T21:04:42.015Z,19.85
2022-12-08T21:10:14.716Z,20.15
2022-12-08T21:13:08.429Z,18.00
2022-12-08T21:16:00.465Z,17.20
2022-12-08T21:18:52.301Z,18.40
2022-12-08T21:21:47.034Z,17.48
2022-12-08T21:27:23.431Z,22.25
2022-12-08T21:30:17.185Z,20.10
2022-12-08T21:33:09.151Z,21.73
2022-12-08T21:36:08.212Z,21.23
2022-12-08T21:39:01.436Z,23.20
2022-12-08T21:42:12.066Z,19.23
2022-12-08T21:47:45.206Z,20.40
2022-12-08T21:50:37.707Z,20.08
2022-12-08T21:53:29.125Z,19.37
2022-12-08T21:56:21.068Z,22.13
2022-12-08T21:59:12.617Z,18.55
2022-12-08T22:02:04.318Z,22.05
2022-12-08T22:04:56.446Z,20.45
2022-12-08T22:07:48.929Z,22.05
2022-12-08T22:10:40.793Z,22.07
2022-12-08T22:13:34.295Z,20.72
2022-12-08T22:16:25.980Z,19.32
2022-12-08T22:19:18.061Z,20.27
2022-12-08T22:22:09.945Z,21.35
2022-12-08T22:25:01.925Z,19.70
2022-12-08T22:27:53.921Z,21.45
2022-12-08T22:30:45.807Z,19.50
2022-12-08T22:33:37.956Z,21.52
2022-12-08T22:36:30.665Z,21.70
2022-12-08T22:39:22.438Z,21.07
2022-12-08T22:42:15.222Z,22.70
2022-12-08T22:45:09.323Z,20.85
2022-12-08T22:50:42.225Z,23.12
2022-12-08T22:53:34.247Z,22.98
2022-12-08T22:56:25.956Z,23.35
2022-12-08T22:59:17.809Z,22.32
2022-12-08T23:04:48.837Z,21.50
2022-12-08T23:07:41.857Z,23.57
2022-12-08T23:10:33.592Z,21.02
2022-12-08T23:13:25.632Z,22.13
2022-12-08T23:16:18.195Z,20.60
2022-12-08T23:19:09.884Z,20.92
2022-12-08T23:22:01.597Z,22.70
2022-12-08T23:24:53.122Z,25.17
2022-12-08T23:27:44.762Z,21.57
2022-12-08T23:33:16.937Z,23.77
2022-12-08T23:36:09.219Z,21.57
2022-12-08T23:39:00.914Z,20.45
2022-12-08T23:41:52.787Z,21.48
2022-12-08T23:44:44.655Z,23.00
2022-12-08T23:47:36.370Z,21.48
2022-12-08T23:50:27.734Z,21.05
2022-12-08T23:53:19.849Z,22.25
2022-12-08T23:56:14.476Z,24.37
2022-12-08T23:59:06.525Z,24.45
